createdAt,value
2022-10-28T00:01:25.099Z,5.65
2022-10-28T00:03:57.605Z,5.68
2022-10-28T00:06:42.035Z,5.73
2022-10-28T00:09:12.268Z,5.69
2022-10-28T00:11:41.230Z,5.74
2022-10-28T00:14:11.669Z,5.75
2022-10-28T00:16:40.399Z,5.75
2022-10-28T00:19:13.046Z,5.78
2022-10-28T00:21:46.048Z,5.75
2022-10-28T00:35:34.404Z,5.67
2022-10-28T00:38:01.908Z,5.64
2022-10-28T00:40:34.663Z,5.65
2022-10-28T00:43:02.001Z,5.67
2022-10-28T00:45:29.347Z,5.70
2022-10-28T00:48:03.856Z,5.72
2022-10-28T00:50:51.406Z,5.70
2022-10-28T00:53:31.089Z,5.65
2022-10-28T00:56:01.592Z,5.63
2022-10-28T00:58:29.520Z,5.62
2022-10-28T01:00:56.758Z,5.62
2022-10-28T01:03:24.022Z,5.62
2022-10-28T01:05:52.769Z,5.62
2022-10-28T01:08:20.069Z,5.63
2022-10-28T01:11:15.569Z,5.64
2022-10-28T01:14:37.964Z,5.54
2022-10-28T01:17:12.191Z,5.59
2022-10-28T01:20:36.067Z,5.62
2022-10-28T01:23:31.893Z,5.64
2022-10-28T01:26:33.936Z,5.65
2022-10-28T01:29:24.616Z,5.63
2022-10-28T01:31:58.709Z,5.59
2022-10-28T01:35:04.210Z,5.54
2022-10-28T01:37:47.261Z,5.49
2022-10-28T01:40:37.772Z,5.42
2022-10-28T01:43:26.364Z,5.38
2022-10-28T01:46:21.327Z,5.32
2022-10-28T01:49:11.011Z,5.24
2022-10-28T01:51:45.937Z,5.16
2022-10-28T01:54:18.904Z,5.11
2022-10-28T01:56:48.242Z,5.09
2022-10-28T01:59:24.408Z,5.09
2022-10-28T02:01:51.552Z,5.10
2022-10-28T02:04:18.594Z,5.11
2022-10-28T02:06:50.549Z,5.11
2022-10-28T02:10:03.441Z,5.11
2022-10-28T02:12:39.123Z,5.11
2022-10-28T02:15:36.832Z,5.10
2022-10-28T02:19:01.328Z,5.08
2022-10-28T02:21:46.765Z,5.07
2022-10-28T02:24:25.987Z,5.06
2022-10-28T02:27:05.634Z,5.05
2022-10-28T02:29:49.431Z,5.01
2022-10-28T02:32:24.796Z,4.94
2022-10-28T02:34:57.003Z,4.90
2022-10-28T02:37:35.034Z,4.91
2022-10-28T02:40:12.214Z,4.93
2022-10-28T02:43:03.692Z,4.96
2022-10-28T02:45:49.007Z,5.00
2022-10-28T02:48:28.270Z,5.02
2022-10-28T02:51:07.228Z,5.02
2022-10-28T02:53:47.154Z,5.03
2022-10-28T02:56:17.639Z,5.05
2022-10-28T02:58:44.887Z,5.10
2022-10-28T03:01:11.821Z,5.10
2022-10-28T03:03:39.349Z,5.09
2022-10-28T03:06:06.275Z,5.06
2022-10-28T03:08:33.095Z,5.01
2022-10-28T03:10:59.949Z,4.97
2022-10-28T03:13:26.722Z,4.93
2022-10-28T03:15:53.562Z,4.92
2022-10-28T03:18:20.429Z,4.91
2022-10-28T03:20:47.253Z,4.89
2022-10-28T03:23:14.083Z,4.87
2022-10-28T03:25:40.904Z,4.86
2022-10-28T03:28:07.774Z,4.84
2022-10-28T03:30:34.627Z,4.81
2022-10-28T03:33:01.399Z,4.77
2022-10-28T03:35:28.222Z,4.73
2022-10-28T03:37:55.062Z,4.68
2022-10-28T03:40:22.039Z,4.62
2022-10-28T03:42:48.985Z,4.56
2022-10-28T03:45:16.143Z,4.54
2022-10-28T03:47:43.264Z,4.53
2022-10-28T03:50:10.382Z,4.52
2022-10-28T03:52:37.579Z,4.50
2022-10-28T03:55:05.312Z,4.48
2022-10-28T03:57:33.070Z,4.46
2022-10-28T04:00:00.173Z,4.43
2022-10-28T04:02:27.600Z,4.48
2022-10-28T04:04:54.868Z,4.51
2022-10-28T04:07:21.982Z,4.51
2022-10-28T04:09:50.997Z,4.53
2022-10-28T04:12:18.721Z,4.56
2022-10-28T04:14:45.762Z,4.58
2022-10-28T04:17:12.900Z,4.55
2022-10-28T04:19:40.124Z,4.44
2022-10-28T04:22:08.752Z,4.35
2022-10-28T04:24:35.804Z,4.28
2022-10-28T04:27:03.349Z,4.26
2022-10-28T04:29:31.999Z,4.26
2022-10-28T04:31:59.212Z,4.26
2022-10-28T04:34:26.227Z,4.25
2022-10-28T04:36:53.471Z,4.22
2022-10-28T04:39:20.459Z,4.18
2022-10-28T04:41:47.862Z,4.16
2022-10-28T04:44:14.968Z,4.15
2022-10-28T04:46:42.175Z,4.13
2022-10-28T04:49:09.672Z,4.15
2022-10-28T04:51:36.789Z,4.18
2022-10-28T04:54:04.041Z,4.19
2022-10-28T04:56:32.822Z,4.19
2022-10-28T04:58:59.882Z,4.20
2022-10-28T05:01:27.188Z,4.20
2022-10-28T05:03:54.388Z,4.21
2022-10-28T05:06:21.486Z,4.24
2022-10-28T05:08:48.581Z,4.26
2022-10-28T05:11:15.608Z,4.28
2022-10-28T05:13:42.736Z,4.28
2022-10-28T05:16:09.814Z,4.24
2022-10-28T05:18:37.077Z,4.17
2022-10-28T05:21:04.440Z,4.15
2022-10-28T05:23:31.406Z,4.18
2022-10-28T05:25:58.567Z,4.24
2022-10-28T05:28:25.828Z,4.30
2022-10-28T05:30:52.908Z,4.35
2022-10-28T05:33:20.082Z,4.41
2022-10-28T05:35:47.108Z,4.48
2022-10-28T05:38:14.269Z,4.53
2022-10-28T05:40:41.694Z,4.60
2022-10-28T05:43:09.991Z,4.67
2022-10-28T05:45:37.442Z,4.76
2022-10-28T05:48:04.773Z,4.84
2022-10-28T05:50:31.921Z,4.94
2022-10-28T05:52:58.800Z,5.07
2022-10-28T05:55:29.073Z,5.15
2022-10-28T05:57:57.347Z,5.23
2022-10-28T06:00:26.625Z,5.28
2022-10-28T06:03:08.871Z,5.35
2022-10-28T06:05:38.932Z,5.45
2022-10-28T06:08:06.131Z,5.55
2022-10-28T06:10:33.896Z,5.66
2022-10-28T06:13:00.615Z,5.77
2022-10-28T06:15:27.594Z,5.89
2022-10-28T06:17:54.539Z,5.99
2022-10-28T06:20:21.283Z,6.13
2022-10-28T06:22:50.486Z,6.27
2022-10-28T06:25:19.868Z,6.39
2022-10-28T06:27:58.253Z,6.57
2022-10-28T06:30:26.484Z,6.69
2022-10-28T06:32:56.400Z,6.83
2022-10-28T06:35:23.231Z,6.96
2022-10-28T06:37:56.584Z,7.09
2022-10-28T06:40:24.757Z,7.22
2022-10-28T06:43:04.151Z,7.36
2022-10-28T06:45:33.073Z,7.53
2022-10-28T06:48:05.490Z,7.72
2022-10-28T06:50:34.463Z,7.91
2022-10-28T06:53:02.344Z,8.11
2022-10-28T06:55:30.521Z,8.27
2022-10-28T06:58:02.323Z,8.47
2022-10-28T07:00:34.242Z,8.70
2022-10-28T07:03:02.612Z,8.86
2022-10-28T07:05:29.482Z,9.02
2022-10-28T07:07:56.727Z,9.18
2022-10-28T07:10:23.818Z,9.30
2022-10-28T07:12:53.286Z,9.41
2022-10-28T07:15:20.946Z,9.53
2022-10-28T07:17:56.462Z,9.64
2022-10-28T07:20:26.718Z,9.80
2022-10-28T07:22:59.205Z,9.98
2022-10-28T07:25:28.142Z,10.14
2022-10-28T07:27:57.975Z,10.30
2022-10-28T07:30:25.893Z,10.46
2022-10-28T07:32:53.044Z,10.65
2022-10-28T07:35:20.588Z,10.85
2022-10-28T07:37:47.519Z,11.04
2022-10-28T07:40:14.380Z,11.23
2022-10-28T07:42:41.202Z,11.38
2022-10-28T07:45:08.699Z,11.55
2022-10-28T07:47:35.581Z,11.72
2022-10-28T07:50:03.920Z,11.91
2022-10-28T07:52:30.802Z,12.09
2022-10-28T07:54:57.631Z,12.23
2022-10-28T07:57:24.581Z,12.43
2022-10-28T07:59:51.630Z,12.60
2022-10-28T08:02:21.767Z,12.70
2022-10-28T08:04:48.597Z,12.75
2022-10-28T08:07:15.979Z,12.86
2022-10-28T08:09:42.983Z,12.98
2022-10-28T08:12:13.457Z,13.16
2022-10-28T08:14:40.882Z,13.29
2022-10-28T08:17:08.096Z,13.48
2022-10-28T08:19:34.887Z,13.58
2022-10-28T08:22:02.411Z,13.66
2022-10-28T08:24:29.330Z,13.75
2022-10-28T08:26:56.645Z,13.90
2022-10-28T08:29:27.719Z,14.18
2022-10-28T08:31:57.386Z,14.39
2022-10-28T08:34:28.792Z,14.54
2022-10-28T08:36:56.221Z,14.40
2022-10-28T08:39:23.055Z,14.43
2022-10-28T08:42:22.029Z,14.52
2022-10-28T08:45:19.673Z,14.64
2022-10-28T08:48:10.581Z,14.94
2022-10-28T08:50:49.217Z,15.03
2022-10-28T08:53:26.543Z,15.01
2022-10-28T08:55:59.499Z,14.87
2022-10-28T08:58:32.627Z,15.07
2022-10-28T09:00:59.660Z,15.16
2022-10-28T09:03:34.440Z,15.16
2022-10-28T09:06:07.168Z,15.21
2022-10-28T09:08:40.846Z,15.34
2022-10-28T09:11:10.311Z,15.41
2022-10-28T09:14:15.906Z,15.72
2022-10-28T09:16:48.373Z,15.83
2022-10-28T09:19:30.064Z,16.07
2022-10-28T09:22:12.278Z,16.44
2022-10-28T09:24:48.150Z,16.71
2022-10-28T09:27:58.647Z,16.60
2022-10-28T09:31:10.593Z,16.68
2022-10-28T09:33:50.772Z,16.94
2022-10-28T09:36:42.771Z,17.22
2022-10-28T09:39:19.707Z,17.49
2022-10-28T09:41:50.481Z,17.71
2022-10-28T09:44:41.152Z,17.68
2022-10-28T09:47:18.832Z,17.72
2022-10-28T09:49:48.183Z,17.86
2022-10-28T09:53:19.680Z,18.13
2022-10-28T09:55:46.568Z,18.12
2022-10-28T09:58:13.385Z,18.10
2022-10-28T10:00:40.800Z,18.15
2022-10-28T10:03:08.160Z,18.02
2022-10-28T10:05:42.907Z,18.09
2022-10-28T10:08:15.372Z,18.10
2022-10-28T10:10:57.274Z,18.02
2022-10-28T10:13:29.107Z,17.90
2022-10-28T10:16:05.046Z,17.87
2022-10-28T10:18:32.511Z,18.21
2022-10-28T10:21:00.030Z,18.39
2022-10-28T10:23:36.335Z,18.30
2022-10-28T10:26:13.067Z,18.16
2022-10-28T10:28:49.326Z,18.27
2022-10-28T10:31:26.513Z,18.85
2022-10-28T10:33:56.870Z,19.24
2022-10-28T10:36:28.433Z,19.48
2022-10-28T10:39:01.575Z,19.52
2022-10-28T10:41:43.201Z,19.57
2022-10-28T10:44:22.041Z,20.24
2022-10-28T10:46:55.032Z,20.37
2022-10-28T10:49:21.747Z,20.84
2022-10-28T10:51:53.584Z,20.83
2022-10-28T10:54:20.619Z,20.56
2022-10-28T10:56:47.544Z,20.52
2022-10-28T10:59:29.876Z,21.33
2022-10-28T11:01:59.037Z,20.84
2022-10-28T11:04:29.746Z,19.68
2022-10-28T11:06:57.765Z,20.21
2022-10-28T11:09:37.961Z,20.98
2022-10-28T11:12:38.394Z,20.50
2022-10-28T11:15:11.410Z,20.79
2022-10-28T11:17:38.653Z,21.01
2022-10-28T11:20:25.576Z,21.25
2022-10-28T11:23:19.986Z,21.51
2022-10-28T11:25:52.814Z,22.53
2022-10-28T11:29:07.056Z,22.81
2022-10-28T11:32:22.151Z,22.13
2022-10-28T11:35:30.763Z,22.06
2022-10-28T11:38:23.887Z,22.29
2022-10-28T11:41:21.681Z,22.62
2022-10-28T11:43:57.672Z,23.05
2022-10-28T11:47:06.211Z,23.20
2022-10-28T11:50:17.593Z,23.37
2022-10-28T11:53:20.066Z,23.35
2022-10-28T11:56:20.886Z,22.08
2022-10-28T11:59:25.009Z,21.98
2022-10-28T12:02:53.562Z,21.07
2022-10-28T12:05:36.995Z,20.21
2022-10-28T12:08:21.965Z,20.58
2022-10-28T12:11:21.626Z,20.52
2022-10-28T12:14:05.077Z,21.08
2022-10-28T12:16:45.669Z,21.11
2022-10-28T12:19:21.742Z,21.46
2022-10-28T12:22:05.282Z,21.88
2022-10-28T12:24:37.158Z,21.40
2022-10-28T12:27:18.278Z,22.13
2022-10-28T12:29:51.937Z,22.63
2022-10-28T12:32:26.069Z,22.69
2022-10-28T12:35:13.957Z,22.74
2022-10-28T12:37:52.911Z,23.05
2022-10-28T12:40:25.960Z,22.64
2022-10-28T12:43:14.268Z,22.74
2022-10-28T12:45:43.015Z,22.27
2022-10-28T12:48:45.103Z,21.27
2022-10-28T12:51:19.328Z,21.86
2022-10-28T12:53:49.647Z,22.18
2022-10-28T12:56:36.991Z,22.32
2022-10-28T12:59:30.262Z,22.77
2022-10-28T13:02:00.740Z,22.93
2022-10-28T13:04:28.430Z,23.01
2022-10-28T13:07:30.756Z,23.06
2022-10-28T13:10:19.088Z,21.78
2022-10-28T13:13:09.292Z,21.43
2022-10-28T13:15:50.366Z,22.19
2022-10-28T13:18:57.618Z,22.91
2022-10-28T13:21:41.745Z,23.02
2022-10-28T13:24:25.366Z,23.17
2022-10-28T13:26:53.515Z,23.20
2022-10-28T13:29:26.800Z,22.51
2022-10-28T13:31:54.967Z,22.31
2022-10-28T13:34:34.259Z,22.34
2022-10-28T13:37:04.832Z,22.37
2022-10-28T13:39:46.587Z,22.31
2022-10-28T13:42:14.220Z,22.25
2022-10-28T13:44:52.919Z,22.59
2022-10-28T13:47:30.127Z,22.78
2022-10-28T13:50:09.147Z,22.87
2022-10-28T13:52:46.821Z,22.52
2022-10-28T13:55:22.444Z,22.44
2022-10-28T13:57:57.841Z,22.25
2022-10-28T14:03:04.334Z,22.21
2022-10-28T14:05:37.351Z,22.05
2022-10-28T14:08:30.549Z,21.81
2022-10-28T14:11:00.304Z,21.49
2022-10-28T14:13:28.350Z,21.60
2022-10-28T14:16:24.548Z,21.67
2022-10-28T14:18:59.641Z,21.63
2022-10-28T14:22:18.095Z,21.45
2022-10-28T14:24:45.140Z,21.16
2022-10-28T14:27:12.370Z,20.69
2022-10-28T14:30:11.541Z,20.22
2022-10-28T14:32:58.154Z,19.51
2022-10-28T14:35:40.172Z,18.88
2022-10-28T14:38:47.024Z,18.23
2022-10-28T14:42:04.746Z,17.69
2022-10-28T14:45:08.588Z,17.08
2022-10-28T14:48:03.602Z,16.48
2022-10-28T14:50:44.706Z,16.01
2022-10-28T14:53:34.465Z,15.59
2022-10-28T14:56:11.501Z,15.14
2022-10-28T14:58:44.036Z,14.74
2022-10-28T15:01:22.921Z,14.40
2022-10-28T15:04:10.807Z,14.07
2022-10-28T15:06:42.415Z,13.74
2022-10-28T15:09:25.617Z,13.45
2022-10-28T15:12:01.477Z,13.19
2022-10-28T15:14:33.390Z,12.93
2022-10-28T15:17:11.520Z,12.72
2022-10-28T15:19:39.634Z,12.52
2022-10-28T15:22:15.627Z,12.38
2022-10-28T15:24:59.954Z,12.27
2022-10-28T15:27:37.291Z,12.19
2022-10-28T15:30:14.851Z,12.11
2022-10-28T15:32:42.170Z,12.01
2022-10-28T15:35:27.814Z,11.93
2022-10-28T15:37:58.674Z,11.81
2022-10-28T15:40:34.672Z,11.69
2022-10-28T15:43:04.375Z,11.55
2022-10-28T15:45:38.323Z,11.41
2022-10-28T15:48:29.041Z,11.25
2022-10-28T15:51:12.560Z,11.11
2022-10-28T15:53:44.317Z,10.97
2022-10-28T15:56:13.969Z,10.89
2022-10-28T15:58:43.492Z,10.83
2022-10-28T16:01:34.755Z,10.76
2022-10-28T16:04:01.993Z,10.69
2022-10-28T16:06:37.999Z,10.61
2022-10-28T16:09:09.122Z,10.53
2022-10-28T16:11:42.040Z,10.45
2022-10-28T16:14:33.650Z,10.39
2022-10-28T16:17:23.243Z,10.33
2022-10-28T16:19:58.237Z,10.30
2022-10-28T16:22:29.141Z,10.26
2022-10-28T16:24:56.945Z,10.22
2022-10-28T16:27:27.973Z,10.17
2022-10-28T16:29:54.964Z,10.10
2022-10-28T16:32:30.771Z,10.04
2022-10-28T16:34:59.891Z,10.00
2022-10-28T16:37:34.498Z,9.95
2022-10-28T16:40:01.520Z,9.92
2022-10-28T16:42:29.810Z,9.89
2022-10-28T16:44:56.940Z,9.86
2022-10-28T16:47:26.320Z,9.83
2022-10-28T16:49:57.290Z,9.77
2022-10-28T16:52:29.494Z,9.73
2022-10-28T16:54:58.121Z,9.64
2022-10-28T16:57:25.925Z,9.56
2022-10-28T16:59:53.881Z,9.49
2022-10-28T17:02:34.259Z,9.46
2022-10-28T17:05:04.640Z,9.42
2022-10-28T17:07:31.697Z,9.40
2022-10-28T17:09:58.734Z,9.39
2022-10-28T17:12:27.320Z,9.40
2022-10-28T17:14:54.429Z,9.42
2022-10-28T17:17:21.467Z,9.42
2022-10-28T17:19:48.651Z,9.41
2022-10-28T17:22:15.782Z,9.38
2022-10-28T17:24:42.760Z,9.34
2022-10-28T17:27:09.987Z,9.31
2022-10-28T17:29:38.180Z,9.27
2022-10-28T17:32:08.844Z,9.23
2022-10-28T17:34:36.547Z,9.19
2022-10-28T17:37:03.967Z,9.17
2022-10-28T17:39:31.168Z,9.13
2022-10-28T17:41:58.323Z,9.12
2022-10-28T17:44:25.765Z,9.12
2022-10-28T17:46:52.902Z,9.09
2022-10-28T17:49:19.929Z,9.07
2022-10-28T17:51:46.900Z,9.04
2022-10-28T17:54:13.987Z,9.01
2022-10-28T17:56:41.435Z,8.97
2022-10-28T17:59:08.944Z,8.90
2022-10-28T18:01:36.325Z,8.86
2022-10-28T18:04:04.971Z,8.84
2022-10-28T18:06:32.205Z,8.84
2022-10-28T18:08:59.401Z,8.85
2022-10-28T18:11:26.829Z,8.83
2022-10-28T18:13:55.737Z,8.78
2022-10-28T18:16:27.268Z,8.72
2022-10-28T18:18:55.501Z,8.64
2022-10-28T18:21:24.043Z,8.57
2022-10-28T18:24:02.923Z,8.51
2022-10-28T18:26:34.939Z,8.43
2022-10-28T18:29:05.721Z,8.36
2022-10-28T18:31:33.605Z,8.31
2022-10-28T18:34:01.671Z,8.27
2022-10-28T18:36:33.714Z,8.23
2022-10-28T18:39:04.549Z,8.17
2022-10-28T18:41:33.951Z,8.10
2022-10-28T18:44:03.919Z,8.05
2022-10-28T18:46:37.295Z,8.00
2022-10-28T18:49:05.056Z,7.97
2022-10-28T18:51:34.048Z,7.94
2022-10-28T18:54:01.697Z,7.92
2022-10-28T18:56:29.850Z,7.89
2022-10-28T18:58:58.373Z,7.85
2022-10-28T19:01:28.269Z,7.81
2022-10-28T19:03:58.315Z,7.76
2022-10-28T19:06:30.144Z,7.71
2022-10-28T19:09:00.326Z,7.67
2022-10-28T19:11:29.773Z,7.62
2022-10-28T19:13:59.555Z,7.61
2022-10-28T19:16:29.364Z,7.62
2022-10-28T19:18:58.519Z,7.62
2022-10-28T19:21:27.172Z,7.60
2022-10-28T19:23:54.851Z,7.58
2022-10-28T19:26:22.617Z,7.57
2022-10-28T19:28:50.414Z,7.59
2022-10-28T19:31:21.004Z,7.59
2022-10-28T19:33:48.696Z,7.63
2022-10-28T19:36:23.310Z,7.66
2022-10-28T19:38:53.163Z,7.66
2022-10-28T19:41:26.293Z,7.64
2022-10-28T19:43:59.255Z,7.64
2022-10-28T19:46:31.109Z,7.66
2022-10-28T19:49:00.308Z,7.67
2022-10-28T19:51:30.443Z,7.67
2022-10-28T19:54:04.478Z,7.66
2022-10-28T19:56:33.821Z,7.66
2022-10-28T19:59:03.751Z,7.66
2022-10-28T20:01:39.080Z,7.66
2022-10-28T20:04:07.630Z,7.66
2022-10-28T20:06:38.966Z,7.63
2022-10-28T20:09:06.760Z,7.61
2022-10-28T20:11:37.152Z,7.60
2022-10-28T20:14:11.910Z,7.59
2022-10-28T20:16:42.021Z,7.54
2022-10-28T20:19:09.259Z,7.58
2022-10-28T20:21:37.759Z,7.58
2022-10-28T20:24:06.454Z,7.58
2022-10-28T20:26:36.215Z,7.56
2022-10-28T20:29:05.998Z,7.53
2022-10-28T20:31:33.250Z,7.50
2022-10-28T20:34:05.450Z,7.48
2022-10-28T20:36:40.600Z,7.47
2022-10-28T20:39:15.953Z,7.45
2022-10-28T20:41:46.042Z,7.42
2022-10-28T20:44:13.201Z,7.37
2022-10-28T20:46:40.606Z,7.32
2022-10-28T20:49:12.589Z,7.29
2022-10-28T20:51:39.996Z,7.26
2022-10-28T20:54:07.528Z,7.25
2022-10-28T20:56:38.261Z,7.28
2022-10-28T20:59:05.677Z,7.32
2022-10-28T21:01:38.976Z,7.37
2022-10-28T21:04:10.490Z,7.40
2022-10-28T21:06:39.337Z,7.38
2022-10-28T21:09:07.292Z,7.35
2022-10-28T21:11:34.488Z,7.34
2022-10-28T21:14:02.149Z,7.35
2022-10-28T21:16:29.933Z,7.35
2022-10-28T21:18:58.814Z,7.37
2022-10-28T21:21:27.240Z,7.36
2022-10-28T21:23:56.392Z,7.36
2022-10-28T21:26:23.353Z,7.37
2022-10-28T21:28:52.275Z,7.38
2022-10-28T21:31:21.308Z,7.34
2022-10-28T21:36:19.912Z,7.44
2022-10-28T21:38:47.573Z,7.46
2022-10-28T21:41:18.959Z,7.48
2022-10-28T21:43:49.636Z,7.49
2022-10-28T21:46:18.653Z,7.52
2022-10-28T21:48:45.947Z,7.54
2022-10-28T21:51:15.453Z,7.57
2022-10-28T21:53:44.314Z,7.61
2022-10-28T21:56:19.283Z,7.65
2022-10-28T21:58:49.364Z,7.69
2022-10-28T22:01:20.603Z,7.72
2022-10-28T22:03:48.365Z,7.71
2022-10-28T22:06:15.580Z,7.69
2022-10-28T22:08:42.745Z,7.65
2022-10-28T22:11:17.178Z,7.58
2022-10-28T22:13:44.749Z,7.50
2022-10-28T22:16:17.521Z,7.44
2022-10-28T22:18:44.799Z,7.39
2022-10-28T22:21:18.917Z,7.34
2022-10-28T22:23:46.704Z,7.28
2022-10-28T22:26:19.832Z,7.21
2022-10-28T22:28:47.631Z,7.14
2022-10-28T22:31:18.355Z,7.07
2022-10-28T22:36:17.305Z,6.97
2022-10-28T22:38:45.156Z,6.93
2022-10-28T22:41:14.525Z,6.89
2022-10-28T22:43:45.282Z,6.78
2022-10-28T22:46:14.496Z,6.77
2022-10-28T22:48:41.589Z,6.73
2022-10-28T22:51:09.252Z,6.70
2022-10-28T22:53:38.408Z,6.67
2022-10-28T22:56:07.467Z,6.65
2022-10-28T22:58:34.997Z,6.61
2022-10-28T23:01:16.902Z,6.59
2022-10-28T23:03:46.818Z,6.57
2022-10-28T23:06:16.771Z,6.55
2022-10-28T23:08:44.551Z,6.54
2022-10-28T23:11:13.535Z,6.52
2022-10-28T23:13:40.748Z,6.55
2022-10-28T23:16:13.326Z,6.60
2022-10-28T23:18:41.541Z,6.66
2022-10-28T23:21:17.122Z,6.70
2022-10-28T23:23:51.178Z,6.73
2022-10-28T23:26:22.189Z,6.73
2022-10-28T23:28:53.836Z,6.74
2022-10-28T23:31:21.644Z,6.74
2022-10-28T23:33:49.668Z,6.73
2022-10-28T23:36:17.024Z,6.72
2022-10-28T23:38:44.189Z,6.69
2022-10-28T23:41:15.668Z,6.65
2022-10-28T23:43:42.724Z,6.61
2022-10-28T23:46:10.872Z,6.57
2022-10-28T23:48:38.349Z,6.52
2022-10-28T23:51:06.208Z,6.48
2022-10-28T23:53:33.537Z,6.41
2022-10-28T23:56:00.840Z,6.33
2022-10-28T23:58:27.867Z,6.25
